createdAt,value
2022-08-09T00:00:06.535Z,102951.34
2022-08-09T00:02:35.086Z,102950.91
2022-08-09T00:06:12.169Z,102946.56
2022-08-09T00:07:48.929Z,102941.06
2022-08-09T00:10:21.506Z,102941.47
2022-08-09T00:12:51.626Z,102938.72
2022-08-09T00:15:19.493Z,102943.81
2022-08-09T00:18:05.675Z,102945.75
2022-08-09T00:20:32.437Z,102942.59
2022-08-09T00:23:10.051Z,102941.78
2022-08-09T00:25:51.764Z,102938.66
2022-08-09T00:28:19.275Z,102952.06
2022-08-09T00:30:50.802Z,102945.78
2022-08-09T00:33:17.357Z,102950.91
2022-08-09T00:35:44.428Z,102941.84
2022-08-09T00:38:12.781Z,102946.56
2022-08-09T00:40:40.093Z,102942.19
2022-08-09T00:44:19.578Z,102943.25
2022-08-09T00:46:09.386Z,102946.34
2022-08-09T00:48:37.203Z,102936.06
2022-08-09T00:51:10.306Z,102938.75
2022-08-09T00:53:39.926Z,102941.44
2022-08-09T00:56:09.746Z,102940.25
2022-08-09T00:58:37.075Z,102942.63
2022-08-09T01:01:12.517Z,102941.06
2022-08-09T01:03:55.023Z,102941.81
2022-08-09T01:06:54.831Z,102942.50
2022-08-09T01:09:37.112Z,102941.66
2022-08-09T01:12:29.621Z,102939.31
2022-08-09T01:15:09.859Z,102944.41
2022-08-09T01:17:57.758Z,102950.63
2022-08-09T01:20:45.736Z,102943.13
2022-08-09T01:24:01.902Z,102949.44
2022-08-09T01:26:36.140Z,102957.25
2022-08-09T01:29:04.596Z,102958.44
2022-08-09T01:32:30.157Z,102952.88
2022-08-09T01:34:26.020Z,102958.38
2022-08-09T01:36:56.256Z,102954.41
2022-08-09T01:39:26.841Z,102963.84
2022-08-09T01:41:59.909Z,102959.47
2022-08-09T01:44:29.889Z,102958.63
2022-08-09T01:46:59.172Z,102954.66
2022-08-09T01:49:31.997Z,102957.41
2022-08-09T01:52:09.117Z,102953.84
2022-08-09T01:54:42.031Z,102954.59
2022-08-09T01:57:15.216Z,102955.75
2022-08-09T01:59:51.885Z,102948.75
2022-08-09T02:02:23.734Z,102949.06
2022-08-09T02:05:04.653Z,102949.06
2022-08-09T02:08:41.353Z,102955.75
2022-08-09T02:10:30.118Z,102947.50
2022-08-09T02:12:59.654Z,102951.81
2022-08-09T02:15:48.785Z,102955.31
2022-08-09T02:18:19.395Z,102954.09
2022-08-09T02:20:53.664Z,102956.06
2022-08-09T02:23:27.806Z,102958.38
2022-08-09T02:26:00.205Z,102959.09
2022-08-09T02:28:35.895Z,102968.09
2022-08-09T02:31:06.281Z,102964.56
2022-08-09T02:34:06.395Z,102969.25
2022-08-09T02:36:31.639Z,102963.72
2022-08-09T02:39:04.345Z,102968.78
2022-08-09T02:41:45.468Z,102964.09
2022-08-09T02:44:29.566Z,102963.94
2022-08-09T02:47:01.207Z,102958.47
2022-08-09T02:49:39.015Z,102956.84
2022-08-09T02:52:11.918Z,102955.72
2022-08-09T02:54:51.153Z,102955.66
2022-08-09T02:57:23.242Z,102943.44
2022-08-09T03:00:21.388Z,102936.69
2022-08-09T03:02:58.564Z,102940.19
2022-08-09T03:05:28.035Z,102942.91
2022-08-09T03:07:56.096Z,102935.84
2022-08-09T03:10:25.081Z,102929.13
2022-08-09T03:12:52.979Z,102933.13
2022-08-09T03:15:20.857Z,102936.56
2022-08-09T03:17:57.897Z,102933.41
2022-08-09T03:20:29.717Z,102941.59
2022-08-09T03:22:58.427Z,102938.44
2022-08-09T03:25:59.260Z,102939.97
2022-08-09T03:28:30.472Z,102936.41
2022-08-09T03:30:57.993Z,102932.44
2022-08-09T03:33:26.658Z,102932.84
2022-08-09T03:36:16.340Z,102932.41
2022-08-09T03:38:44.886Z,102936.31
2022-08-09T03:41:14.635Z,102936.66
2022-08-09T03:43:42.776Z,102932.78
2022-08-09T03:46:29.228Z,102935.09
2022-08-09T03:49:03.885Z,102933.50
2022-08-09T03:51:57.036Z,102939.38
2022-08-09T03:54:29.702Z,102937.41
2022-08-09T03:57:00.634Z,102940.16
2022-08-09T03:59:43.131Z,102939.28
2022-08-09T04:02:14.213Z,102951.03
2022-08-09T04:04:41.032Z,102942.78
2022-08-09T04:07:14.499Z,102945.88
2022-08-09T04:09:49.929Z,102954.13
2022-08-09T04:12:46.603Z,102949.84
2022-08-09T04:15:40.416Z,102957.72
2022-08-09T04:18:06.407Z,102957.72
2022-08-09T04:20:33.228Z,102960.84
2022-08-09T04:23:00.513Z,102960.03
2022-08-09T04:25:28.966Z,102965.53
2022-08-09T04:27:59.925Z,102963.56
2022-08-09T04:30:29.280Z,102976.50
2022-08-09T04:32:56.929Z,102978.53
2022-08-09T04:35:23.464Z,102984.44
2022-08-09T04:37:50.370Z,102982.38
2022-08-09T04:40:28.654Z,102983.97
2022-08-09T04:43:02.459Z,102992.19
2022-08-09T04:45:30.769Z,102986.28
2022-08-09T04:48:02.125Z,102979.63
2022-08-09T04:50:31.983Z,102981.97
2022-08-09T04:53:13.241Z,102975.72
2022-08-09T04:55:58.926Z,102984.41
2022-08-09T04:58:27.630Z,102987.94
2022-08-09T05:00:55.197Z,102986.41
2022-08-09T05:03:40.034Z,102984.44
2022-08-09T05:06:09.653Z,102986.78
2022-08-09T05:08:36.317Z,102988.44
2022-08-09T05:11:03.596Z,102988.47
2022-08-09T05:13:34.090Z,102996.00
2022-08-09T05:16:06.381Z,102998.78
2022-08-09T05:18:57.408Z,103001.16
2022-08-09T05:21:24.444Z,102998.78
2022-08-09T05:24:00.023Z,102998.06
2022-08-09T05:26:45.637Z,102997.38
2022-08-09T05:29:21.085Z,103002.91
2022-08-09T05:31:56.845Z,102999.81
2022-08-09T05:34:30.749Z,103006.53
2022-08-09T05:37:06.059Z,103007.75
2022-08-09T05:39:36.524Z,103009.34
2022-08-09T05:42:10.209Z,103010.56
2022-08-09T05:44:44.830Z,103010.22
2022-08-09T05:47:14.261Z,103017.03
2022-08-09T05:50:28.171Z,103016.28
2022-08-09T05:52:27.435Z,103022.69
2022-08-09T05:54:57.344Z,103025.50
2022-08-09T05:57:50.432Z,103023.91
2022-08-09T06:00:16.926Z,103031.78
2022-08-09T06:02:46.612Z,103028.72
2022-08-09T06:05:13.544Z,103030.78
2022-08-09T06:07:40.112Z,103029.69
2022-08-09T06:10:09.465Z,103029.28
2022-08-09T06:12:43.104Z,103030.63
2022-08-09T06:15:11.250Z,103035.09
2022-08-09T06:17:40.647Z,103030.94
2022-08-09T06:20:08.579Z,103044.47
2022-08-09T06:22:40.996Z,103048.66
2022-08-09T06:25:12.483Z,103051.16
2022-08-09T06:28:06.156Z,103038.59
2022-08-09T06:44:31.555Z,103052.47
2022-08-09T06:46:59.471Z,103057.63
2022-08-09T06:49:44.697Z,103060.81
2022-08-09T06:52:15.643Z,103063.22
2022-08-09T06:54:43.044Z,103072.66
2022-08-09T06:57:12.104Z,103074.63
2022-08-09T07:00:50.844Z,103072.31
2022-08-09T07:03:17.165Z,103075.06
2022-08-09T07:05:58.296Z,103075.09
2022-08-09T07:09:01.871Z,103074.38
2022-08-09T07:17:16.971Z,103075.78
2022-08-09T07:22:58.192Z,103069.94
2022-08-09T07:25:25.530Z,103058.91
2022-08-09T07:34:08.287Z,103074.13
2022-08-09T07:36:49.017Z,103073.00
2022-08-09T07:39:20.314Z,103072.19
2022-08-09T07:42:50.071Z,103062.78
2022-08-09T07:45:38.417Z,103061.66
2022-08-09T07:48:52.840Z,103064.03
2022-08-09T07:52:04.467Z,103060.91
2022-08-09T08:00:03.083Z,103053.09
2022-08-09T08:02:32.169Z,103058.25
2022-08-09T08:04:58.999Z,103051.56
2022-08-09T08:08:43.055Z,103060.28
2022-08-09T08:10:12.353Z,103054.00
2022-08-09T08:12:45.640Z,103053.22
2022-08-09T08:15:42.724Z,103059.13
2022-08-09T08:18:07.308Z,103067.03
2022-08-09T08:20:33.932Z,103063.16
2022-08-09T08:23:15.779Z,103069.56
2022-08-09T08:25:44.278Z,103076.31
2022-08-09T08:28:11.455Z,103083.81
2022-08-09T08:30:41.789Z,103088.19
2022-08-09T08:33:11.941Z,103079.13
2022-08-09T08:35:58.452Z,103077.94
2022-08-09T08:38:28.807Z,103085.47
2022-08-09T08:40:56.701Z,103080.72
2022-08-09T08:43:24.346Z,103078.34
2022-08-09T08:46:00.080Z,103084.31
2022-08-09T08:48:51.812Z,103087.84
2022-08-09T08:51:22.496Z,103090.22
2022-08-09T08:54:03.084Z,103087.09
2022-08-09T08:56:35.467Z,103091.81
2022-08-09T08:59:19.134Z,103080.78
2022-08-09T09:01:52.942Z,103070.91
2022-08-09T09:04:31.093Z,103074.84
2022-08-09T09:07:07.945Z,103070.09
2022-08-09T09:09:58.477Z,103076.81
2022-08-09T09:12:29.189Z,103079.25
2022-08-09T09:14:59.243Z,103079.63
2022-08-09T09:17:25.856Z,103072.13
2022-08-09T09:20:15.478Z,103076.88
2022-08-09T09:22:51.868Z,103080.81
2022-08-09T09:26:03.951Z,103080.41
2022-08-09T09:29:01.704Z,103075.69
2022-08-09T09:32:04.646Z,103078.03
2022-08-09T09:34:14.561Z,103083.56
2022-08-09T09:36:50.910Z,103077.66
2022-08-09T09:39:23.469Z,103073.28
2022-08-09T09:41:54.266Z,103076.81
2022-08-09T09:44:25.715Z,103080.34
2022-08-09T09:46:56.759Z,103077.59
2022-08-09T09:49:56.395Z,103078.34
2022-08-09T09:52:35.640Z,103072.44
2022-08-09T09:55:02.638Z,103070.06
2022-08-09T09:58:03.317Z,103078.31
2022-08-09T10:00:31.885Z,103075.53
2022-08-09T10:03:00.279Z,103073.50
2022-08-09T10:06:03.792Z,103077.44
2022-08-09T10:08:27.558Z,103073.00
2022-08-09T10:10:55.649Z,103073.78
2022-08-09T10:13:24.582Z,103077.69
2022-08-09T10:16:56.496Z,103076.00
2022-08-09T10:18:59.908Z,103076.75
2022-08-09T10:21:27.536Z,103073.47
2022-08-09T10:23:56.740Z,103072.59
2022-08-09T10:26:24.640Z,103078.09
2022-08-09T10:29:31.664Z,103068.94
2022-08-09T10:32:35.650Z,103060.13
2022-08-09T10:34:33.073Z,103063.16
2022-08-09T10:37:02.432Z,103064.69
2022-08-09T10:39:29.915Z,103057.47
2022-08-09T10:42:08.453Z,103065.66
2022-08-09T10:44:39.972Z,103061.25
2022-08-09T10:48:14.446Z,103052.00
2022-08-09T10:50:27.276Z,103049.38
2022-08-09T10:53:05.217Z,103048.78
2022-08-09T10:55:58.735Z,103047.41
2022-08-09T10:58:34.990Z,103052.44
2022-08-09T11:03:02.429Z,103049.06
2022-08-09T11:04:19.484Z,103043.25
2022-08-09T11:06:59.899Z,103048.31
2022-08-09T11:09:47.431Z,103040.78
2022-08-09T11:12:17.472Z,103040.78
2022-08-09T11:14:54.787Z,103044.59
2022-08-09T11:17:22.571Z,103037.78
2022-08-09T11:20:11.089Z,103042.81
2022-08-09T11:22:42.744Z,103038.25
2022-08-09T11:25:14.606Z,103035.34
2022-08-09T11:28:07.869Z,103027.53
2022-08-09T11:30:36.021Z,103039.22
2022-08-09T11:33:10.514Z,103027.19
2022-08-09T11:35:49.603Z,103026.75
2022-08-09T11:38:28.545Z,103027.53
2022-08-09T11:41:37.532Z,103018.59
2022-08-09T11:44:05.365Z,103015.13
2022-08-09T11:46:52.335Z,103018.47
2022-08-09T11:49:28.047Z,103007.09
2022-08-09T11:52:48.910Z,103009.03
2022-08-09T11:55:39.895Z,103010.25
2022-08-09T11:58:14.246Z,103008.94
2022-08-09T12:00:53.211Z,103013.03
2022-08-09T12:03:55.679Z,103014.22
2022-08-09T12:06:13.771Z,103009.66
2022-08-09T12:08:48.368Z,103009.84
2022-08-09T12:11:17.231Z,103012.31
2022-08-09T12:14:09.924Z,103012.88
2022-08-09T12:16:40.407Z,102996.16
2022-08-09T12:19:09.270Z,103000.47
2022-08-09T12:21:48.516Z,102994.13
2022-08-09T12:24:24.212Z,102988.16
2022-08-09T12:28:59.794Z,102988.28
2022-08-09T12:29:43.979Z,102992.97
2022-08-09T12:32:27.088Z,102984.31
2022-08-09T12:35:02.968Z,102977.75
2022-08-09T12:37:44.121Z,102990.19
2022-08-09T12:40:18.753Z,102978.78
2022-08-09T12:42:50.478Z,102979.03
2022-08-09T12:45:33.269Z,102969.69
2022-08-09T12:48:03.104Z,102980.16
2022-08-09T12:50:29.987Z,102972.59
2022-08-09T12:53:18.095Z,102983.97
2022-08-09T12:56:12.334Z,102973.91
2022-08-09T12:58:29.818Z,102974.34
2022-08-09T13:00:56.647Z,102977.19
2022-08-09T13:03:56.921Z,102968.47
2022-08-09T13:06:34.969Z,102965.56
2022-08-09T13:09:06.285Z,102977.00
2022-08-09T13:11:35.525Z,102973.78
2022-08-09T13:14:42.139Z,102979.78
2022-08-09T13:17:13.535Z,102979.78
2022-08-09T13:20:09.709Z,102975.34
2022-08-09T13:23:00.262Z,102973.34
2022-08-09T13:25:18.337Z,102969.38
2022-08-09T13:27:48.803Z,102963.28
2022-08-09T13:30:48.974Z,102964.16
2022-08-09T13:33:11.626Z,102960.81
2022-08-09T13:36:37.585Z,102951.88
2022-08-09T13:38:54.673Z,102947.31
2022-08-09T13:41:55.515Z,102947.81
2022-08-09T13:44:08.214Z,102942.03
2022-08-09T13:47:16.158Z,102938.03
2022-08-09T13:49:21.324Z,102928.91
2022-08-09T13:52:01.427Z,102937.25
2022-08-09T13:54:35.190Z,102933.66
2022-08-09T13:57:47.302Z,102932.97
2022-08-09T14:09:34.714Z,102943.41
2022-08-09T14:12:07.026Z,102936.97
2022-08-09T14:14:43.888Z,102941.03
2022-08-09T14:17:13.705Z,102934.53
2022-08-09T14:19:43.719Z,102935.97
2022-08-09T14:22:11.446Z,102932.03
2022-08-09T14:24:46.900Z,102939.56
2022-08-09T14:27:20.912Z,102940.38
2022-08-09T14:30:34.137Z,102931.88
2022-08-09T14:32:34.473Z,102930.97
2022-08-09T14:35:06.346Z,102933.34
2022-08-09T14:37:41.276Z,102931.69
2022-08-09T14:40:19.466Z,102921.25
2022-08-09T14:43:05.696Z,102926.34
2022-08-09T14:46:57.491Z,102921.56
2022-08-09T14:48:18.744Z,102923.47
2022-08-09T14:50:45.625Z,102910.72
2022-08-09T14:53:13.866Z,102915.78
2022-08-09T14:55:49.979Z,102927.16
2022-08-09T14:58:17.315Z,102919.19
2022-08-09T15:00:48.104Z,102925.97
2022-08-09T15:03:16.690Z,102910.91
2022-08-09T15:05:51.394Z,102915.91
2022-08-09T15:08:24.205Z,102913.38
2022-08-09T15:11:00.757Z,102911.47
2022-08-09T15:13:48.336Z,102911.84
2022-08-09T15:16:17.708Z,102905.91
2022-08-09T15:18:44.430Z,102912.19
2022-08-09T15:21:56.134Z,102915.41
2022-08-09T15:24:12.412Z,102906.63
2022-08-09T15:26:45.313Z,102908.97
2022-08-09T15:30:55.570Z,102900.34
2022-08-09T15:32:00.199Z,102891.47
2022-08-09T15:34:34.258Z,102897.25
2022-08-09T15:37:04.183Z,102899.63
2022-08-09T15:39:43.938Z,102900.53
2022-08-09T15:42:18.914Z,102893.13
2022-08-09T15:44:45.881Z,102893.13
2022-08-09T15:47:13.935Z,102892.34
2022-08-09T15:49:41.610Z,102895.97
2022-08-09T15:52:27.754Z,102892.47
2022-08-09T15:54:54.925Z,102885.28
2022-08-09T15:57:34.681Z,102884.34
2022-08-09T16:00:14.833Z,102885.47
2022-08-09T16:02:53.533Z,102881.03
2022-08-09T16:05:22.669Z,102877.03
2022-08-09T16:07:50.632Z,102875.75
2022-08-09T16:10:56.006Z,102870.13
2022-08-09T16:13:20.840Z,102881.53
2022-08-09T16:16:04.697Z,102881.53
2022-08-09T16:18:44.745Z,102870.91
2022-08-09T16:21:12.029Z,102880.31
2022-08-09T16:23:50.772Z,102874.81
2022-08-09T16:26:35.170Z,102879.41
2022-08-09T16:29:11.833Z,102872.28
2022-08-09T16:32:18.083Z,102873.81
2022-08-09T16:34:28.953Z,102874.25
2022-08-09T16:36:56.649Z,102863.84
2022-08-09T16:39:25.877Z,102869.78
2022-08-09T16:42:02.814Z,102872.13
2022-08-09T16:44:32.163Z,102865.69
2022-08-09T16:47:04.078Z,102858.28
2022-08-09T16:50:29.779Z,102861.91
2022-08-09T16:52:32.637Z,102857.19
2022-08-09T16:54:59.548Z,102873.63
2022-08-09T16:57:26.158Z,102869.72
2022-08-09T17:00:14.090Z,102864.50
2022-08-09T17:02:43.776Z,102864.06
2022-08-09T17:05:14.240Z,102871.28
2022-08-09T17:08:46.288Z,102870.56
2022-08-09T17:10:33.470Z,102872.56
2022-08-09T17:13:01.534Z,102874.38
2022-08-09T17:15:59.090Z,102876.09
2022-08-09T17:18:15.213Z,102874.53
2022-08-09T17:20:50.898Z,102872.53
2022-08-09T17:23:20.209Z,102876.09
2022-08-09T17:25:52.953Z,102880.53
2022-08-09T17:28:19.954Z,102881.88
2022-08-09T17:30:47.888Z,102879.59
2022-08-09T17:33:21.829Z,102880.81
2022-08-09T17:35:50.070Z,102884.44
2022-08-09T17:38:30.702Z,102885.03
2022-08-09T17:41:02.976Z,102881.53
2022-08-09T17:43:37.353Z,102887.09
2022-08-09T17:46:08.730Z,102882.38
2022-08-09T17:48:38.674Z,102891.19
2022-08-09T17:51:17.920Z,102892.75
2022-08-09T17:53:52.831Z,102882.56
2022-08-09T17:56:27.756Z,102876.28
2022-08-09T17:58:57.228Z,102883.78
2022-08-09T18:01:24.061Z,102878.28
2022-08-09T18:04:01.278Z,102876.00
2022-08-09T18:06:33.397Z,102878.84
2022-08-09T18:09:03.653Z,102878.47
2022-08-09T18:12:04.955Z,102885.31
2022-08-09T18:14:20.819Z,102883.38
2022-08-09T18:16:49.086Z,102896.50
2022-08-09T18:20:56.291Z,102888.22
2022-08-09T18:22:04.894Z,102890.28
2022-08-09T18:25:50.273Z,102884.72
2022-08-09T18:30:38.593Z,102890.69
2022-08-09T18:31:06.035Z,102884.00
2022-08-09T18:33:35.002Z,102884.84
2022-08-09T18:36:02.184Z,102882.91
2022-08-09T18:38:28.867Z,102875.41
2022-08-09T18:40:55.838Z,102870.72
2022-08-09T18:43:24.675Z,102880.31
2022-08-09T18:46:46.671Z,102876.81
2022-08-09T18:48:37.751Z,102872.56
2022-08-09T18:51:04.656Z,102871.41
2022-08-09T18:53:56.955Z,102875.41
2022-08-09T18:56:27.853Z,102880.63
2022-08-09T18:58:56.153Z,102882.31
2022-08-09T19:01:23.384Z,102878.47
2022-08-09T19:04:01.828Z,102881.28
2022-08-09T19:06:33.688Z,102886.88
2022-08-09T19:09:02.790Z,102882.56
2022-08-09T19:11:37.363Z,102891.34
2022-08-09T19:14:06.605Z,102888.59
2022-08-09T19:16:35.992Z,102883.94
2022-08-09T19:19:23.490Z,102888.38
2022-08-09T19:22:04.800Z,102893.56
2022-08-09T19:24:38.768Z,102894.81
2022-08-09T19:27:20.580Z,102894.88
2022-08-09T19:30:20.946Z,102890.59
2022-08-09T19:32:35.916Z,102902.09
2022-08-09T19:35:04.433Z,102895.03
2022-08-09T19:37:41.228Z,102902.19
2022-08-09T19:40:19.361Z,102899.81
2022-08-09T19:42:47.478Z,102906.22
2022-08-09T19:45:16.241Z,102911.81
2022-08-09T19:47:44.374Z,102915.81
2022-08-09T19:50:49.270Z,102915.88
2022-08-09T19:52:59.297Z,102919.09
2022-08-09T19:56:02.313Z,102923.94
2022-08-09T19:58:16.459Z,102921.63
2022-08-09T20:00:45.492Z,102936.28
2022-08-09T20:04:26.514Z,102935.13
2022-08-09T20:06:03.191Z,102937.59
2022-08-09T20:08:34.707Z,102937.25
2022-08-09T20:11:04.492Z,102943.25
2022-08-09T20:13:32.291Z,102937.38
2022-08-09T20:16:37.360Z,102942.94
2022-08-09T20:19:42.185Z,102941.00
2022-08-09T20:21:40.707Z,102944.16
2022-08-09T20:24:29.572Z,102950.56
2022-08-09T20:27:00.974Z,102948.22
2022-08-09T20:29:32.995Z,102947.06
2022-08-09T20:32:30.773Z,102948.28
2022-08-09T20:34:53.749Z,102954.63
2022-08-09T20:37:21.578Z,102950.31
2022-08-09T20:40:17.693Z,102944.03
2022-08-09T20:42:37.801Z,102943.66
2022-08-09T20:45:57.212Z,102952.75
2022-08-09T20:47:52.393Z,102948.03
2022-08-09T20:50:48.434Z,102946.50
2022-08-09T20:53:18.727Z,102948.47
2022-08-09T20:56:00.767Z,102950.09
2022-08-09T20:58:32.859Z,102948.94
2022-08-09T21:01:32.446Z,102946.56
2022-08-09T21:05:48.545Z,102953.31
2022-08-09T21:06:36.114Z,102950.19
2022-08-09T21:09:03.964Z,102960.09
2022-08-09T21:14:17.434Z,102968.81
2022-08-09T21:16:45.604Z,102963.66
2022-08-09T21:20:18.877Z,102959.72
2022-08-09T21:22:00.135Z,102962.13
2022-08-09T21:24:32.607Z,102960.16
2022-08-09T21:27:50.433Z,102958.22
2022-08-09T21:29:49.082Z,102948.75
2022-08-09T21:35:00.262Z,102943.28
2022-08-09T21:37:27.093Z,102957.13
2022-08-09T21:40:10.866Z,102953.19
2022-08-09T21:42:38.318Z,102942.50
2022-08-09T21:45:06.649Z,102946.06
2022-08-09T21:47:33.979Z,102945.66
2022-08-09T21:50:00.922Z,102950.44
2022-08-09T21:52:29.762Z,102941.75
2022-08-09T21:55:03.902Z,102943.34
2022-08-09T21:57:37.276Z,102944.53
2022-08-09T22:00:10.647Z,102946.91
2022-08-09T22:02:40.114Z,102948.88
2022-08-09T22:05:22.144Z,102948.91
2022-08-09T22:07:53.374Z,102942.59
2022-08-09T22:10:23.212Z,102943.00
2022-08-09T22:12:52.224Z,102938.66
2022-08-09T22:15:23.249Z,102946.13
2022-08-09T22:17:59.978Z,102942.59
2022-08-09T22:20:27.330Z,102942.59
2022-08-09T22:22:57.733Z,102946.53
2022-08-09T22:26:07.259Z,102944.97
2022-08-09T22:28:11.463Z,102952.84
2022-08-09T22:30:39.188Z,102950.47
2022-08-09T22:33:17.216Z,102945.75
2022-08-09T22:36:01.823Z,102943.78
2022-08-09T22:38:30.413Z,102941.03
2022-08-09T22:40:59.393Z,102944.16
2022-08-09T22:44:02.392Z,102945.75
2022-08-09T22:48:13.476Z,102939.06
2022-08-09T22:49:10.189Z,102947.31
2022-08-09T22:51:38.337Z,102944.16
2022-08-09T22:54:08.073Z,102944.56
2022-08-09T22:56:35.062Z,102948.50
2022-08-09T22:59:06.110Z,102946.91
2022-08-09T23:01:51.125Z,102943.75
2022-08-09T23:04:18.045Z,102947.69
2022-08-09T23:07:03.071Z,102952.81
2022-08-09T23:09:37.530Z,102947.25
2022-08-09T23:12:04.504Z,102951.19
2022-08-09T23:14:41.665Z,102955.91
2022-08-09T23:17:10.010Z,102955.50
2022-08-09T23:20:07.441Z,102949.56
2022-08-09T23:22:24.411Z,102957.06
2022-08-09T23:24:53.667Z,102950.34
2022-08-09T23:27:20.398Z,102942.47
2022-08-09T23:29:47.124Z,102953.50
2022-08-09T23:32:13.861Z,102955.47
2022-08-09T23:34:40.582Z,102949.13
2022-08-09T23:39:51.122Z,102938.06
2022-08-09T23:42:17.732Z,102942.81
2022-08-09T23:44:44.528Z,102936.50
2022-08-09T23:47:12.342Z,102936.47
2022-08-09T23:49:38.908Z,102938.03
2022-08-09T23:52:05.610Z,102932.88
2022-08-09T23:54:32.431Z,102942.75
2022-08-09T23:56:59.189Z,102935.59
2022-08-09T23:59:46.105Z,102934.03
